Time;durP1;ratioP1;P1;durP2;ratioP2;P2;SDS_P1;SDS_P2;PMS_P1;PMS_P2;Temp;Humidity;BMP_temperature;BMP_pressure;BME280_temperature;BME280_humidity;BME280_pressure;Samples;Min_cycle;Max_cycle;Signal;HPM_P1;HPM_P2
2023/12/24 00:02:25;;;;;;;;;;;;;;;;;;5036568;28;19931;-74
2023/12/24 00:04:57;;;;;;;;;;;9.70;1.00;;;;;;5022969;28;20299;-75
2023/12/24 00:07:23;;;;;;;;;;;9.80;1.00;;;;;;5026992;28;19923;-74
2023/12/24 00:09:57;;;;;;;;;;;;;;;;;;5036342;28;20004;-75
2023/12/24 00:12:57;;;;;;;;;;;9.80;1.00;;;;;;5037131;28;19909;-80
2023/12/24 00:15:23;;;;;;;;;;;;;;;;;;5025423;28;19909;-81
2023/12/24 00:20:51;;;;;;;;;;;;;;;;;;5037643;28;19920;-79
2023/12/24 00:23:21;;;;;;;;;;;9.90;1.00;;;;;;5045635;28;19924;-79
2023/12/24 00:25:51;;;;;;;;;;;10.00;1.00;;;;;;5036186;28;19916;-80
2023/12/24 00:28:27;;;;;;;;;;;10.00;1.00;;;;;;5026548;28;19917;-78
2023/12/24 00:31:03;;;;;;;;;;;10.00;1.00;;;;;;5036112;28;19909;-80
2023/12/24 00:36:15;;;;;;;;;;;10.10;1.00;;;;;;5034585;28;19976;-82
2023/12/24 00:39:15;;;;;;;;;;;10.20;1.00;;;;;;5043739;28;19917;-80
2023/12/24 00:44:45;;;;;;;;;;;;;;;;;;5030727;28;20391;-74
2023/12/24 00:47:10;;;;;;;;;;;10.40;1.00;;;;;;5042198;28;19917;-75
2023/12/24 00:49:39;;;;;;;;;;;10.30;1.00;;;;;;5036059;28;19931;-75
2023/12/24 00:52:05;;;;;;;;;;;10.30;1.00;;;;;;5035697;28;19963;-74
2023/12/24 00:54:39;;;;;;;;;;;10.30;1.00;;;;;;5040493;28;20319;-75
2023/12/24 00:57:09;;;;;;;;;;;10.30;1.00;;;;;;5033832;28;20008;-79
2023/12/24 00:59:35;;;;;;;;;;;10.30;1.00;;;;;;5035398;28;19913;-73
2023/12/24 01:02:03;;;;;;;;;;;10.30;1.00;;;;;;5035253;28;19917;-74
2023/12/24 01:04:33;;;;;;;;;;;;;;;;;;5035555;28;19913;-74
2023/12/24 01:06:59;;;;;;;;;;;;;;;;;;5025509;28;20343;-74
2023/12/24 01:09:45;;;;;;;;;;;10.30;1.00;;;;;;5018921;28;19917;-75
2023/12/24 01:12:15;;;;;;;;;;;10.20;1.00;;;;;;5036586;28;19917;-80
2023/12/24 01:14:41;;;;;;;;;;;10.20;1.00;;;;;;5035146;28;19999;-74
2023/12/24 01:17:09;;;;;;;;;;;10.30;1.00;;;;;;5036690;28;19944;-74
2023/12/24 01:19:35;;;;;;;;;;;10.30;1.00;;;;;;5035454;28;19920;-74
2023/12/24 01:22:00;;;;;;;;;;;10.30;1.00;;;;;;5035085;28;19917;-74
2023/12/24 01:24:26;;;;;;;;;;;10.40;1.00;;;;;;5034999;28;19909;-73
2023/12/24 01:26:52;;;;;;;;;;;10.40;1.00;;;;;;5036499;28;19917;-74
2023/12/24 01:29:27;;;;;;;;;;;10.30;1.00;;;;;;5035481;28;19913;-79
2023/12/24 01:32:15;;;;;;;;;;;10.40;1.00;;;;;;5035037;28;19916;-80
2023/12/24 01:34:45;;;;;;;;;;;10.40;1.00;;;;;;5044061;28;19913;-78
2023/12/24 01:40:14;;;;;;;;;;;;;;;;;;5042794;28;20049;-80
2023/12/24 01:42:57;;;;;;;;;;;10.40;1.00;;;;;;5049845;28;19919;-80
2023/12/24 01:45:23;;;;;;;;;;;10.40;1.00;;;;;;5034589;28;19913;-80
2023/12/24 01:47:57;;;;;;;;;;;;;;;;;;5040326;28;19909;-80
2023/12/24 01:50:45;;;;;;;;;;;10.50;1.00;;;;;;5037509;28;19917;-78
2023/12/24 01:53:21;;;;;;;;;;;10.50;1.00;;;;;;5034564;28;19928;-79
2023/12/24 01:56:01;;;;;;;;;;;10.40;1.00;;;;;;5015855;28;19939;-80
2023/12/24 01:58:51;;;;;;;;;;;10.40;1.00;;;;;;5034692;28;19909;-75
2023/12/24 02:01:21;;;;;;;;;;;;;;;;;;5040912;28;20388;-76
2023/12/24 02:03:51;;;;;;;;;;;10.40;1.00;;;;;;5033416;28;19913;-74
2023/12/24 02:06:24;;;;;;;;;;;10.40;1.00;;;;;;5032589;28;19924;-75
2023/12/24 02:08:57;;;;;;;;;;;;;;;;;;5022900;28;20007;-75
2023/12/24 02:11:27;;;;;;;;;;;10.40;1.00;;;;;;5016063;28;19920;-75
2023/12/24 02:14:18;;;;;;;;;;;10.40;1.00;;;;;;5034531;28;19944;-81
2023/12/24 02:16:57;;;;;;;;;;;;;;;;;;5021934;28;20008;-80
2023/12/24 02:22:32;;;;;;;;;;;10.40;1.00;;;;;;5033848;28;19983;-80
2023/12/24 02:25:21;;;;;;;;;;;10.40;1.00;;;;;;5033904;28;20384;-80
2023/12/24 02:28:09;;;;;;;;;;;10.40;1.00;;;;;;5034263;28;19963;-81
2023/12/24 02:30:49;;;;;;;;;;;10.50;1.00;;;;;;5035833;28;19917;-75
2023/12/24 02:33:15;;;;;;;;;;;;;;;;;;5031402;28;20384;-74
2023/12/24 02:35:52;;;;;;;;;;;10.50;1.00;;;;;;5026360;28;19917;-75
2023/12/24 02:38:21;;;;;;;;;;;10.50;1.00;;;;;;5033859;28;19920;-75
2023/12/24 02:40:47;;;;;;;;;;;10.60;1.00;;;;;;5033601;28;20011;-74
2023/12/24 02:46:21;;;;;;;;;;;10.60;1.00;;;;;;5024517;28;20347;-78
2023/12/24 02:48:51;;;;;;;;;;;10.60;1.00;;;;;;5023040;28;19966;-80
2023/12/24 02:51:28;;;;;;;;;;;10.50;1.00;;;;;;5035496;28;20023;-78
2023/12/24 02:56:51;;;;;;;;;;;10.50;1.00;;;;;;5035015;28;19956;-80
2023/12/24 02:59:17;;;;;;;;;;;10.50;1.00;;;;;;5033888;28;20447;-74
2023/12/24 03:01:43;;;;;;;;;;;10.60;1.00;;;;;;5018030;28;20008;-74
2023/12/24 03:04:08;;;;;;;;;;;10.60;1.00;;;;;;5021018;28;19916;-75
2023/12/24 03:06:35;;;;;;;;;;;;;;;;;;5039363;28;19975;-74
2023/12/24 03:09:01;;;;;;;;;;;10.40;1.00;;;;;;5030786;28;19928;-75
2023/12/24 03:11:27;;;;;;;;;;;10.30;1.00;;;;;;5039076;28;20284;-75
2023/12/24 03:13:57;;;;;;;;;;;10.30;1.00;;;;;;5047090;28;19919;-75
2023/12/24 03:16:23;;;;;;;;;;;10.30;1.00;;;;;;5037588;28;19909;-75
2023/12/24 03:18:48;;;;;;;;;;;10.30;1.00;;;;;;5037578;28;19916;-74
2023/12/24 03:21:21;;;;;;;;;;;;;;;;;;5040033;28;19917;-74
2023/12/24 03:24:09;;;;;;;;;;;10.30;1.00;;;;;;5037481;28;19909;-75
2023/12/24 03:26:39;;;;;;;;;;;10.40;1.00;;;;;;5029270;28;19939;-75
2023/12/24 03:29:09;;;;;;;;;;;10.40;1.00;;;;;;5035627;28;19913;-74
2023/12/24 03:31:35;;;;;;;;;;;10.40;1.00;;;;;;5036982;28;20000;-74
2023/12/24 03:34:01;;;;;;;;;;;10.40;1.00;;;;;;5047576;28;19957;-75
2023/12/24 03:36:26;;;;;;;;;;;10.40;1.00;;;;;;5035896;28;19913;-75
2023/12/24 03:38:52;;;;;;;;;;;10.40;1.00;;;;;;5050259;28;19925;-74
2023/12/24 03:41:21;;;;;;;;;;;10.40;1.00;;;;;;5032909;28;19950;-75
2023/12/24 03:43:51;;;;;;;;;;;10.40;1.00;;;;;;5037182;28;19913;-80
2023/12/24 03:46:27;;;;;;;;;;;10.40;1.00;;;;;;5036624;28;19939;-79
2023/12/24 03:48:56;;;;;;;;;;;10.30;1.00;;;;;;5048954;28;19913;-80
2023/12/24 03:51:23;;;;;;;;;;;;;;;;;;5043752;28;20368;-80
2023/12/24 03:56:34;;;;;;;;;;;;;;;;;;5047506;28;19920;-80
2023/12/24 03:59:03;;;;;;;;;;;10.20;1.00;;;;;;5030219;28;19909;-80
2023/12/24 04:01:45;;;;;;;;;;;;;;;;;;5049433;28;19925;-80
2023/12/24 04:10:04;;;;;;;;;;;10.20;1.00;;;;;;5043077;28;19955;-80
2023/12/24 04:15:33;;;;;;;;;;;10.20;1.00;;;;;;5043665;28;19916;-75
2023/12/24 04:17:59;;;;;;;;;;;;;;;;;;5048145;28;19912;-75
2023/12/24 04:20:27;;;;;;;;;;;10.20;1.00;;;;;;5038239;28;19917;-75
2023/12/24 04:22:57;;;;;;;;;;;10.20;1.00;;;;;;5055019;28;20008;-75
2023/12/24 04:25:23;;;;;;;;;;;;;;;;;;5056117;28;19951;-75
2023/12/24 04:27:51;;;;;;;;;;;;;;;;;;5012831;28;19999;-76
2023/12/24 04:30:21;;;;;;;;;;;10.20;1.00;;;;;;5044518;28;20011;-80
2023/12/24 04:33:09;;;;;;;;;;;10.20;1.00;;;;;;5029566;28;19967;-80
2023/12/24 04:35:39;;;;;;;;;;;10.20;1.00;;;;;;5053542;28;19912;-79
2023/12/24 04:38:33;;;;;;;;;;;10.20;1.00;;;;;;5028069;28;19959;-80
2023/12/24 04:46:57;;;;;;;;;;;10.30;1.00;;;;;;5030999;28;19921;-79
2023/12/24 04:49:27;;;;;;;;;;;;;;;;;;5035925;28;19921;-82
2023/12/24 04:51:59;;;;;;;;;;;10.20;1.00;;;;;;5034797;28;19920;-80
2023/12/24 04:57:28;;;;;;;;;;;;;;;;;;5035741;28;19963;-79
2023/12/24 04:59:57;;;;;;;;;;;;;;;;;;5037371;28;19925;-80
2023/12/24 05:02:23;;;;;;;;;;;;;;;;;;5037129;28;19920;-78
2023/12/24 05:04:54;;;;;;;;;;;10.20;1.00;;;;;;5039008;28;20364;-78
2023/12/24 05:07:33;;;;;;;;;;;;;;;;;;5026164;28;19976;-78
2023/12/24 05:10:03;;;;;;;;;;;;;;;;;;5029215;28;19967;-80
2023/12/24 05:12:29;;;;;;;;;;;10.10;1.00;;;;;;5035559;28;20368;-79
2023/12/24 05:18:21;;;;;;;;;;;10.10;1.00;;;;;;5035459;28;19996;-81
2023/12/24 05:23:49;;;;;;;;;;;10.00;1.00;;;;;;5028074;28;19936;-80
2023/12/24 05:29:18;;;;;;;;;;;10.00;1.00;;;;;;5033465;28;19919;-81
2023/12/24 05:31:45;;;;;;;;;;;;;;;;;;5034271;28;19995;-75
2023/12/24 05:34:11;;;;;;;;;;;;;;;;;;5020631;28;19917;-74
2023/12/24 05:36:38;;;;;;;;;;;9.70;1.00;;;;;;5028702;28;19910;-75
2023/12/24 05:39:05;;;;;;;;;;;9.70;1.00;;;;;;5017788;28;20368;-75
2023/12/24 05:41:31;;;;;;;;;;;9.70;1.00;;;;;;5018532;28;20351;-75
2023/12/24 05:43:57;;;;;;;;;;;9.60;1.00;;;;;;5034574;28;19909;-75
2023/12/24 05:46:51;;;;;;;;;;;9.50;1.00;;;;;;5038050;28;19966;-80
2023/12/24 05:49:30;;;;;;;;;;;;;;;;;;5033639;28;19932;-81
2023/12/24 05:55:04;;;;;;;;;;;9.30;6.50;;;;;;5025412;28;20014;-82
2023/12/24 05:57:45;;;;;;;;;;;9.30;9.50;;;;;;5015497;28;19917;-80
2023/12/24 06:00:15;;;;;;;;;;;9.30;12.80;;;;;;5019238;28;20301;-75
2023/12/24 06:02:41;;;;;;;;;;;;;;;;;;5037327;28;19967;-76
2023/12/24 06:05:07;;;;;;;;;;;9.20;21.00;;;;;;5034765;28;20286;-76
2023/12/24 06:07:33;;;;;;;;;;;9.10;24.80;;;;;;5025277;28;19924;-76
2023/12/24 06:10:03;;;;;;;;;;;9.10;29.60;;;;;;5036601;28;19912;-74
2023/12/24 06:12:29;;;;;;;;;;;;;;;;;;5017058;28;19913;-75
2023/12/24 06:14:56;;;;;;;;;;;9.10;38.90;;;;;;5032774;28;19913;-77
2023/12/24 06:17:39;;;;;;;;;;;;;;;;;;5034406;28;19932;-81
2023/12/24 06:23:39;;;;;;;;;;;9.00;38.80;;;;;;5034163;28;19920;-80
2023/12/24 06:26:15;;;;;;;;;;;9.00;38.80;;;;;;5034130;28;19959;-80
2023/12/24 06:31:45;;;;;;;;;;;;;;;;;;5044656;28;19935;-76
2023/12/24 06:34:15;;;;;;;;;;;9.00;38.70;;;;;;5035829;28;20372;-75
2023/12/24 06:36:45;;;;;;;;;;;9.00;38.70;;;;;;5033995;28;19913;-76
2023/12/24 06:39:15;;;;;;;;;;;9.00;38.70;;;;;;5034030;28;19913;-75
2023/12/24 06:41:41;;;;;;;;;;;9.00;38.70;;;;;;5019196;28;19924;-76
2023/12/24 06:44:09;;;;;;;;;;;9.00;38.80;;;;;;5051740;28;19909;-75
2023/12/24 06:46:35;;;;;;;;;;;9.00;38.80;;;;;;5036473;28;19920;-75
2023/12/24 06:49:09;;;;;;;;;;;;;;;;;;5033709;28;20327;-75
2023/12/24 06:51:35;;;;;;;;;;;9.00;38.70;;;;;;5016444;28;20284;-75
2023/12/24 06:54:02;;;;;;;;;;;9.00;38.70;;;;;;5036556;28;20214;-76
2023/12/24 06:56:28;;;;;;;;;;;9.10;38.80;;;;;;5039998;28;20338;-75
2023/12/24 06:59:03;;;;;;;;;;;;;;;;;;5039683;28;19913;-76
2023/12/24 07:01:30;;;;;;;;;;;;;;;;;;5037431;28;20561;-76
2023/12/24 07:06:58;;;;;;;;;;;9.00;46.30;;;;;;5032788;28;20312;-76
2023/12/24 07:09:27;;;;;;;;;;;;;;;;;;5024371;28;19917;-76
2023/12/24 07:11:57;;;;;;;;;;;9.00;50.20;;;;;;5033612;28;19913;-76
2023/12/24 07:14:23;;;;;;;;;;;9.00;51.40;;;;;;5033500;28;19909;-75
2023/12/24 07:16:49;;;;;;;;;;;9.00;54.70;;;;;;5018253;28;19916;-82
2023/12/24 07:22:17;;;;;;;;;;;;;;;;;;5033630;28;19928;-81
2023/12/24 07:27:57;;;;;;;;;;;9.00;57.00;;;;;;5031490;28;19920;-81
2023/12/24 07:30:33;;;;;;;;;;;9.00;59.30;;;;;;5026485;28;19909;-82
2023/12/24 07:33:03;;;;;;;;;;;;;;;;;;5028324;28;19913;-76
2023/12/24 07:35:45;;;;;;;;;;;;;;;;;;5032767;28;19913;-75
2023/12/24 07:38:11;;;;;;;;;;;;;;;;;;5033411;28;19920;-75
2023/12/24 07:40:40;;;;;;;;;;;9.00;59.70;;;;;;5033158;28;20002;-76
2023/12/24 07:43:06;;;;;;;;;;;;;;;;;;5035528;28;19920;-75
2023/12/24 07:45:34;;;;;;;;;;;9.00;64.60;;;;;;5022617;28;19917;-75
2023/12/24 07:48:01;;;;;;;;;;;;;;;;;;5029829;28;19913;-75
2023/12/24 07:50:26;;;;;;;;;;;9.00;65.10;;;;;;5032619;28;20439;-75
2023/12/24 07:52:52;;;;;;;;;;;;;;;;;;5032454;28;20011;-75
2023/12/24 07:55:18;;;;;;;;;;;9.00;68.20;;;;;;5027372;28;19939;-76
2023/12/24 07:57:45;;;;;;;;;;;;;;;;;;5040292;28;19995;-75
2023/12/24 08:00:21;;;;;;;;;;;9.00;68.60;;;;;;5038438;28;19913;-75
2023/12/24 08:03:09;;;;;;;;;;;9.00;69.70;;;;;;5036312;28;19992;-79
2023/12/24 08:06:03;;;;;;;;;;;8.90;72.10;;;;;;5036462;28;19910;-82
2023/12/24 08:08:29;;;;;;;;;;;8.90;76.40;;;;;;5020604;28;20396;-82
2023/12/24 08:10:55;;;;;;;;;;;8.90;78.90;;;;;;5023810;28;19910;-82
2023/12/24 08:13:45;;;;;;;;;;;9.00;82.20;;;;;;5054115;28;19916;-80
2023/12/24 08:16:31;;;;;;;;;;;9.00;80.10;;;;;;5040714;28;19943;-80
2023/12/24 08:18:58;;;;;;;;;;;9.00;81.20;;;;;;5033288;28;20361;-76
2023/12/24 08:21:33;;;;;;;;;;;9.00;80.20;;;;;;5036235;28;19913;-72
2023/12/24 08:24:10;;;;;;;;;;;9.10;80.60;;;;;;5023291;28;19913;-76
2023/12/24 08:26:36;;;;;;;;;;;;;;;;;;5033808;28;19952;-76
2023/12/24 08:29:03;;;;;;;;;;;9.10;79.50;;;;;;5035417;28;19917;-75
2023/12/24 08:31:33;;;;;;;;;;;;;;;;;;5036037;28;19952;-76
2023/12/24 08:34:03;;;;;;;;;;;;;;;;;;5037575;28;19909;-75
2023/12/24 08:36:29;;;;;;;;;;;;;;;;;;5029734;28;20406;-75
2023/12/24 08:39:09;;;;;;;;;;;9.20;75.50;;;;;;5034133;28;20003;-75
2023/12/24 08:41:35;;;;;;;;;;;9.20;73.50;;;;;;5028562;28;20016;-74
2023/12/24 08:44:01;;;;;;;;;;;9.30;72.70;;;;;;5036437;28;19975;-73
2023/12/24 08:46:27;;;;;;;;;;;9.30;68.40;;;;;;5017919;28;19912;-74
2023/12/24 08:48:53;;;;;;;;;;;9.30;67.30;;;;;;5034558;28;19967;-75
2023/12/24 08:51:21;;;;;;;;;;;;;;;;;;5030569;28;19913;-75
2023/12/24 08:53:51;;;;;;;;;;;9.40;66.30;;;;;;5029707;28;19971;-75
2023/12/24 08:56:17;;;;;;;;;;;9.40;64.20;;;;;;5037289;28;19999;-75
2023/12/24 08:58:51;;;;;;;;;;;9.40;61.50;;;;;;5035848;28;20386;-76
2023/12/24 09:01:27;;;;;;;;;;;9.40;61.70;;;;;;5035291;28;19917;-75
2023/12/24 09:03:53;;;;;;;;;;;9.40;59.70;;;;;;5035827;28;19909;-75
2023/12/24 09:06:19;;;;;;;;;;;9.50;57.00;;;;;;5034146;28;20055;-74
2023/12/24 09:09:03;;;;;;;;;;;;;;;;;;5023502;28;20353;-77
2023/12/24 09:11:29;;;;;;;;;;;;;;;;;;5035243;28;19909;-74
2023/12/24 09:13:57;;;;;;;;;;;9.50;49.70;;;;;;5031894;28;20002;-74
2023/12/24 09:16:33;;;;;;;;;;;9.50;50.20;;;;;;5033865;28;19913;-74
2023/12/24 09:19:09;;;;;;;;;;;;;;;;;;5011847;28;19948;-74
2023/12/24 09:21:35;;;;;;;;;;;9.50;47.10;;;;;;5030729;28;19921;-74
2023/12/24 09:24:01;;;;;;;;;;;9.50;48.40;;;;;;5034972;28;20044;-75
2023/12/24 09:26:27;;;;;;;;;;;9.60;50.40;;;;;;5026220;28;19999;-74
2023/12/24 09:28:52;;;;;;;;;;;9.70;44.30;;;;;;5033388;28;19913;-73
2023/12/24 09:31:22;;;;;;;;;;;9.70;39.30;;;;;;5017244;28;19909;-74
2023/12/24 09:33:52;;;;;;;;;;;9.70;39.40;;;;;;5035383;28;19909;-74
2023/12/24 09:36:17;;;;;;;;;;;9.70;39.30;;;;;;5034911;28;19941;-74
2023/12/24 09:38:43;;;;;;;;;;;9.70;39.40;;;;;;5034729;28;19983;-74
2023/12/24 09:41:09;;;;;;;;;;;9.70;39.30;;;;;;5034942;28;19952;-74
2023/12/24 09:43:37;;;;;;;;;;;9.70;39.30;;;;;;5036401;28;19913;-74
2023/12/24 09:46:03;;;;;;;;;;;9.70;39.30;;;;;;5034821;28;20012;-74
2023/12/24 09:48:28;;;;;;;;;;;9.70;39.40;;;;;;5035144;28;19967;-75
2023/12/24 09:50:57;;;;;;;;;;;;;;;;;;5017364;28;19979;-74
2023/12/24 09:53:23;;;;;;;;;;;9.80;39.50;;;;;;5032554;28;19929;-74
2023/12/24 09:55:48;;;;;;;;;;;9.90;39.60;;;;;;5033760;28;19959;-73
2023/12/24 09:58:15;;;;;;;;;;;;;;;;;;5034399;28;19952;-74
2023/12/24 10:00:45;;;;;;;;;;;9.90;39.60;;;;;;5029078;28;19917;-78
2023/12/24 10:03:15;;;;;;;;;;;;;;;;;;5032763;28;19909;-76
2023/12/24 10:06:02;;;;;;;;;;;9.80;39.50;;;;;;5032799;28;19924;-72
2023/12/24 10:11:47;;;;;;;;;;;10.00;38.70;;;;;;5034548;28;19917;-77
2023/12/24 10:14:39;;;;;;;;;;;10.00;38.70;;;;;;5034569;28;19935;-77
2023/12/24 10:17:28;;;;;;;;;;;10.10;38.80;;;;;;5024219;28;19909;-80
2023/12/24 10:19:54;;;;;;;;;;;10.20;38.90;;;;;;5024399;28;19962;-74
2023/12/24 10:22:20;;;;;;;;;;;;;;;;;;5034356;28;20011;-71
2023/12/24 10:24:46;;;;;;;;;;;;;;;;;;5035484;28;20230;-74
2023/12/24 10:27:11;;;;;;;;;;;10.30;38.90;;;;;;5036045;28;19917;-74
2023/12/24 10:29:38;;;;;;;;;;;10.30;38.90;;;;;;5034303;28;19916;-75
2023/12/24 10:35:15;;;;;;;;;;;10.40;35.10;;;;;;5033630;28;20326;-79
2023/12/24 10:40:25;;;;;;;;;;;10.50;25.20;;;;;;5033815;28;19923;-79
2023/12/24 10:42:51;;;;;;;;;;;10.50;24.30;;;;;;5031194;28;20296;-80
2023/12/24 10:45:34;;;;;;;;;;;10.60;26.50;;;;;;5034167;28;19974;-80
2023/12/24 10:48:28;;;;;;;;;;;10.70;18.40;;;;;;5034202;28;19963;-78
2023/12/24 10:51:09;;;;;;;;;;;10.80;14.90;;;;;;5015992;28;19917;-80
2023/12/24 10:53:57;;;;;;;;;;;10.80;10.80;;;;;;5033775;28;19921;-80
2023/12/24 10:56:43;;;;;;;;;;;10.90;11.20;;;;;;5033296;28;19917;-79
2023/12/24 11:05:39;;;;;;;;;;;11.00;6.10;;;;;;5033826;28;19919;-75
2023/12/24 11:08:06;;;;;;;;;;;;;;;;;;5018039;28;20007;-75
2023/12/24 11:10:40;;;;;;;;;;;11.00;8.90;;;;;;5027341;28;19971;-75
2023/12/24 11:13:29;;;;;;;;;;;10.90;5.20;;;;;;5033606;28;20436;-74
2023/12/24 11:15:55;;;;;;;;;;;;;;;;;;4971247;28;19914;-75
2023/12/24 11:18:21;;;;;;;;;;;;;;;;;;4965527;28;20030;-75
2023/12/24 11:20:57;;;;;;;;;;;10.90;11.30;;;;;;4956367;28;19960;-75
2023/12/24 11:23:23;;;;;;;;;;;10.80;10.90;;;;;;4958281;28;19914;-75
2023/12/24 11:25:53;;;;;;;;;;;10.80;14.40;;;;;;4970833;28;19922;-75
2023/12/24 11:28:24;;;;;;;;;;;10.80;16.10;;;;;;4949669;28;19921;-74
2023/12/24 11:30:58;;;;;;;;;;;10.80;12.40;;;;;;4975476;28;19961;-75
2023/12/24 11:33:44;;;;;;;;;;;10.90;10.70;;;;;;4978031;28;19910;-79
2023/12/24 11:36:16;;;;;;;;;;;10.80;4.70;;;;;;4949320;28;21434;-80
2023/12/24 11:38:42;;;;;;;;;;;;;;;;;;4975731;28;19918;-81
2023/12/24 11:41:21;;;;;;;;;;;10.90;1.00;;;;;;4975079;28;19914;-81
2023/12/24 11:46:34;;;;;;;;;;;11.00;1.00;;;;;;4970088;28;19960;-80
2023/12/24 11:51:45;;;;;;;;;;;11.10;1.00;;;;;;4970656;28;20469;-77
2023/12/24 11:54:10;;;;;;;;;;;11.00;1.00;;;;;;5035263;28;19920;-80
2023/12/24 11:56:57;;;;;;;;;;;11.00;1.00;;;;;;5040260;28;19917;-83
2023/12/24 11:59:27;;;;;;;;;;;11.00;1.00;;;;;;5037045;28;19948;-79
2023/12/24 12:02:02;;;;;;;;;;;11.00;1.00;;;;;;5044775;28;20002;-80
2023/12/24 12:04:28;;;;;;;;;;;11.00;1.00;;;;;;5035175;28;19913;-81
2023/12/24 12:06:54;;;;;;;;;;;11.00;1.00;;;;;;5018826;28;19914;-80
2023/12/24 12:09:21;;;;;;;;;;;11.00;1.00;;;;;;5027686;28;19975;-82
2023/12/24 12:11:50;;;;;;;;;;;11.00;1.00;;;;;;5040088;28;19913;-80
2023/12/24 12:14:16;;;;;;;;;;;11.10;1.00;;;;;;5047185;28;19909;-81
2023/12/24 12:16:41;;;;;;;;;;;11.10;1.00;;;;;;5036745;28;20366;-77
2023/12/24 12:19:10;;;;;;;;;;;11.10;1.00;;;;;;5036296;28;19909;-79
2023/12/24 12:21:35;;;;;;;1.75;0.93;;;11.20;1.00;;;;;;5019057;28;20409;-80
2023/12/24 12:24:01;;;;;;;0.50;0.50;;;;;;;;;;5028062;28;20260;-83
2023/12/24 12:26:27;;;;;;;0.60;0.40;;;11.30;1.00;;;;;;5035241;28;20701;-81
2023/12/24 12:28:53;;;;;;;0.60;0.40;;;11.30;1.00;;;;;;5031234;28;20411;-83
2023/12/24 12:31:28;;;;;;;0.50;0.40;;;11.30;1.00;;;;;;5043935;28;20506;-80
2023/12/24 12:34:27;;;;;;;0.40;0.30;;;11.30;1.00;;;;;;5036536;28;20900;-82
2023/12/24 12:37:04;;;;;;;0.50;0.40;;;11.40;1.00;;;;;;5036201;28;20176;-82
2023/12/24 12:39:30;;;;;;;0.40;0.40;;;;;;;;;;5034390;28;20401;-82
2023/12/24 12:41:57;;;;;;;1.90;0.40;;;;;;;;;;5031424;28;20435;-83
2023/12/24 12:44:23;;;;;;;5.28;0.40;;;11.50;1.00;;;;;;5035104;28;20406;-80
2023/12/24 12:46:49;;;;;;;2.93;0.60;;;11.40;1.00;;;;;;5035399;28;20401;-81
2023/12/24 12:49:22;;;;;;;0.60;0.40;;;11.40;1.00;;;;;;5018377;28;20476;-76
2023/12/24 12:51:52;;;;;;;;;;;11.50;1.00;;;;;;5036360;28;19924;-77
2023/12/24 12:54:21;;;;;;;;;;;11.50;1.00;;;;;;5034729;28;19963;-77
2023/12/24 12:56:52;;;;;;;5.18;0.50;;;11.50;1.00;;;;;;5032317;28;20383;-75
2023/12/24 12:59:25;;;;;;;0.40;0.40;;;11.50;1.00;;;;;;5027447;28;20172;-76
2023/12/24 13:01:52;;;;;;;26.55;20.08;;;11.50;1.00;;;;;;5036138;28;20499;-76
2023/12/24 13:04:25;;;;;;;5.50;0.70;;;11.50;1.00;;;;;;5026968;28;20962;-76
2023/12/24 13:06:51;;;;;;;3.43;0.73;;;11.50;1.00;;;;;;5030919;28;20271;-76
2023/12/24 13:09:54;;;;;;;1.03;0.53;;;11.50;1.00;;;;;;5024364;28;20470;-75
2023/12/24 13:12:31;;;;;;;1.00;0.50;;;11.50;1.00;;;;;;4973703;28;20469;-75
2023/12/24 13:14:58;;;;;;;0.60;0.50;;;11.50;1.00;;;;;;4979477;28;20424;-75
2023/12/24 13:17:46;;;;;;;0.40;0.37;;;11.50;1.00;;;;;;4976958;28;20415;-76
2023/12/24 13:20:16;;;;;;;0.40;0.40;;;;;;;;;;4984486;28;20422;-80
2023/12/24 13:22:46;;;;;;;0.97;0.40;;;11.40;1.00;;;;;;4974766;28;20449;-84
2023/12/24 13:25:17;;;;;;;0.90;0.40;;;11.30;1.00;;;;;;4957844;28;20441;-82
2023/12/24 13:31:27;;;;;;;0.40;0.30;;;11.30;1.00;;;;;;4975883;28;20431;-81
2023/12/24 13:34:04;;;;;;;0.40;0.40;;;11.30;1.00;;;;;;4969707;28;20453;-80
2023/12/24 13:39:52;;;;;;;0.50;0.40;;;11.40;1.00;;;;;;4970026;28;20575;-76
2023/12/24 13:42:22;;;;;;;0.40;0.40;;;11.40;1.00;;;;;;4973342;28;20201;-77
2023/12/24 13:44:58;;;;;;;2.43;0.40;;;11.40;1.00;;;;;;4968917;28;20404;-79
2023/12/24 13:47:46;;;;;;;0.83;0.50;;;11.30;1.00;;;;;;5027312;28;20426;-79
2023/12/24 13:50:16;;;;;;;0.40;0.30;;;11.30;1.00;;;;;;5035022;28;20532;-79
2023/12/24 13:52:46;;;;;;;0.40;0.30;;;;;;;;;;5028903;28;20425;-76
2023/12/24 13:55:29;;;;;;;0.40;0.40;;;11.30;1.00;;;;;;5031040;28;20413;-82
2023/12/24 13:57:58;;;;;;;0.40;0.40;;;11.20;1.00;;;;;;5027950;28;20469;-83
2023/12/24 14:00:27;;;;;;;0.83;0.47;;;;;;;;;;5015364;28;20408;-88
2023/12/24 14:06:15;;;;;;;2.97;0.90;;;11.20;1.00;;;;;;5032640;28;20455;-82
2023/12/24 14:09:34;;;;;;;0.50;0.40;;;11.10;1.00;;;;;;5021616;28;20437;-83
2023/12/24 14:12:40;;;;;;;0.40;0.40;;;11.00;1.00;;;;;;5035551;28;20175;-81
2023/12/24 14:15:34;;;;;;;0.50;0.40;;;10.90;1.00;;;;;;5026259;28;20402;-81
2023/12/24 14:18:22;;;;;;;0.50;0.50;;;10.80;3.50;;;;;;5015928;28;20442;-84
2023/12/24 14:20:47;;;;;;;0.50;0.50;;;10.60;10.10;;;;;;5033421;28;20462;-83
2023/12/24 14:26:37;;;;;;;0.67;0.47;;;10.80;14.30;;;;;;5022256;28;20187;-82
2023/12/24 14:29:11;;;;;;;0.60;0.50;;;;;;;;;;5017834;28;20396;-83
2023/12/24 14:32:16;;;;;;;0.43;0.43;;;10.50;21.20;;;;;;5037884;28;20506;-82
2023/12/24 14:34:58;;;;;;;0.80;0.60;;;10.50;27.60;;;;;;5032947;28;20924;-83
2023/12/24 14:37:40;;;;;;;0.43;0.43;;;10.50;33.70;;;;;;5033113;28;20470;-83
2023/12/24 14:40:22;;;;;;;1.03;0.50;;;10.50;39.10;;;;;;5016519;28;20439;-84
2023/12/24 14:42:52;;;;;;;1.00;0.50;;;;;;;;;;5026079;28;20419;-82
2023/12/24 14:45:22;;;;;;;2.73;0.50;;;10.50;35.70;;;;;;5024708;28;20785;-81
2023/12/24 14:47:58;;;;;;;4.90;0.83;;;10.50;39.10;;;;;;5015434;28;20577;-82
2023/12/24 14:50:28;;;;;;;1.63;0.60;;;10.40;39.00;;;;;;5021244;28;20452;-82
2023/12/24 14:53:28;;;;;;;2.80;0.70;;;;;;;;;;5033319;28;20389;-83
2023/12/24 14:56:11;;;;;;;7.53;1.27;;;10.40;39.00;;;;;;5000768;28;20402;-84
2023/12/24 14:58:46;;;;;;;0.50;0.50;;;10.40;39.00;;;;;;5032349;28;20430;-82
2023/12/24 15:01:12;;;;;;;5.80;1.00;;;;;;;;;;5032974;28;20470;-81
2023/12/24 15:03:57;;;;;;;2.20;0.60;;;;;;;;;;5032929;28;20463;-78
2023/12/24 15:06:28;;;;;;;5.23;1.70;;;10.40;39.00;;;;;;5032279;28;20431;-78
2023/12/24 15:09:08;;;;;;;14.30;1.63;;;10.40;39.00;;;;;;5019111;28;21007;-78
2023/12/24 15:11:47;;;;;;;1.10;1.00;;;10.40;39.00;;;;;;5030649;28;20435;-78
2023/12/24 15:14:16;;;;;;;5.80;1.20;;;10.40;39.00;;;;;;5026527;28;20826;-79
2023/12/24 15:16:42;;;;;;;6.33;1.20;;;10.50;38.90;;;;;;5019938;28;20468;-83
2023/12/24 15:19:10;;;;;;;4.73;1.10;;;;;;;;;;5011312;28;20798;-81
2023/12/24 15:21:40;;;;;;;7.33;1.10;;;10.50;21.70;;;;;;5026994;28;21026;-85
2023/12/24 15:24:27;;;;;;;25.97;9.63;;;;;;;;;;5008529;28;20423;-83
2023/12/24 15:26:58;;;;;;;5.00;1.50;;;10.50;19.60;;;;;;5024063;28;20418;-78
2023/12/24 15:29:35;;;;;;;3.47;0.77;;;;;;;;;;5032832;28;20460;-78
2023/12/24 15:32:05;;;;;;;5.20;0.90;;;10.60;16.30;;;;;;5022989;28;20407;-78
2023/12/24 15:34:35;;;;;;;8.03;1.27;;;;;;;;;;5030682;28;20933;-79
2023/12/24 15:37:28;;;;;;;1.87;0.70;;;10.60;14.70;;;;;;5031434;28;21144;-79
2023/12/24 15:39:54;;;;;;;4.03;0.80;;;10.70;11.80;;;;;;5028559;28;20481;-78
2023/12/24 15:42:20;;;;;;;1.00;0.57;;;10.70;12.60;;;;;;5027713;28;20541;-78
2023/12/24 15:44:47;;;;;;;6.27;1.07;;;10.60;12.30;;;;;;5028707;28;20195;-79
2023/12/24 15:47:16;;;;;;;2.40;0.60;;;10.60;10.30;;;;;;5032217;28;20897;-77
2023/12/24 15:49:43;;;;;;;8.17;1.03;;;10.80;6.00;;;;;;5019135;28;20451;-80
2023/12/24 15:52:10;;;;;;;4.53;0.93;;;10.80;5.60;;;;;;5030771;28;20904;-80
2023/12/24 15:54:53;;;;;;;10.40;1.73;;;10.80;3.60;;;;;;5031752;28;20434;-79
2023/12/24 15:57:19;;;;;;;8.60;1.50;;;10.90;4.60;;;;;;5026283;28;20421;-79
2023/12/24 15:59:46;;;;;;;6.00;1.20;;;10.80;3.70;;;;;;5031613;28;20385;-80
2023/12/24 16:02:16;;;;;;;3.97;0.87;;;10.80;4.80;;;;;;5018697;28;20200;-80
2023/12/24 16:04:46;;;;;;;0.50;0.50;;;10.80;3.70;;;;;;5031753;28;20488;-80
2023/12/24 16:07:12;;;;;;;4.63;0.87;;;10.80;3.60;;;;;;5023552;28;20442;-80
2023/12/24 16:09:41;;;;;;;4.23;1.20;;;;;;;;;;5012462;28;20463;-79
2023/12/24 16:12:08;;;;;;;1.87;0.60;;;;;;;;;;5011905;28;20429;-79
2023/12/24 16:14:58;;;;;;;1.90;0.60;;;10.90;3.50;;;;;;5030406;28;20433;-80
2023/12/24 16:17:24;;;;;;;5.13;1.03;;;10.90;3.60;;;;;;5029701;28;20427;-80
2023/12/24 16:19:59;;;;;;;0.80;0.50;;;;;;;;;;5034494;28;20442;-78
2023/12/24 16:22:24;;;;;;;1.77;0.70;;;10.90;3.90;;;;;;5015613;28;20210;-79
2023/12/24 16:25:04;;;;;;;8.63;1.80;;;10.90;3.00;;;;;;5034639;28;20427;-83
2023/12/24 16:27:32;;;;;;;2.97;0.80;;;10.90;1.10;;;;;;5030462;28;20234;-81
2023/12/24 16:30:07;;;;;;;4.00;1.00;;;10.90;1.00;;;;;;5032694;28;20439;-81
2023/12/24 16:36:10;;;;;;;0.53;0.50;;;11.00;1.00;;;;;;5026968;28;20423;-80
2023/12/24 16:38:38;;;;;;;3.43;0.90;;;11.00;1.00;;;;;;5030643;28;20410;-79
2023/12/24 16:41:38;;;;;;;2.83;0.87;;;11.00;1.00;;;;;;5035105;28;20462;-81
2023/12/24 16:44:05;;;;;;;1.23;0.70;;;11.00;1.00;;;;;;5005558;28;20522;-83
2023/12/24 16:46:41;;;;;;;7.00;1.20;;;;;;;;;;5033979;28;20437;-80